Terminal Aerodrome Forecast
Issued by NWS Missoula, MT

Home | Current Version | Previous Version | Text Only | Print | Product List | Glossary On
Versions: 1 2 3 4 5 6 7 8 9 10 11 12 13 14 15 16 17 18 19 20 21 22 23 24 25
000
FTUS45 KMSO 291126
TAFGPI
TAF
KGPI 291126Z 2912/3012 00000KT 5SM BR SCT002
      TEMPO 2912/2915 2SM BR
     FM291600 00000KT 6SM BR SCT001
     FM291700 00000KT 6SM HZ SCT150=

USA.gov is the U.S. government's official web portal to all federal, state and local government web resources and services.